createdAt,value
2018-03-22T00:01:10.909Z,69.09
2018-03-22T00:03:36.963Z,69.24
2018-03-22T00:06:02.991Z,70.21
2018-03-22T00:08:29.013Z,70.37
2018-03-22T00:10:55.052Z,70.46
2018-03-22T00:13:21.046Z,70.60
2018-03-22T00:15:47.083Z,71.15
2018-03-22T00:18:13.109Z,71.13
2018-03-22T00:20:39.158Z,70.94
2018-03-22T00:23:05.275Z,70.44
2018-03-22T00:25:31.277Z,70.39
2018-03-22T00:27:57.854Z,71.09
2018-03-22T00:30:23.885Z,72.04
2018-03-22T00:32:49.918Z,72.64
2018-03-22T00:35:15.973Z,71.77
2018-03-22T00:37:42.025Z,71.88
2018-03-22T00:40:08.041Z,71.16
2018-03-22T00:42:34.157Z,71.49
2018-03-22T00:45:00.202Z,71.07
2018-03-22T00:47:26.202Z,71.34
2018-03-22T00:49:52.214Z,71.20
2018-03-22T00:52:18.273Z,70.94
2018-03-22T00:54:44.302Z,70.86
2018-03-22T00:57:10.305Z,70.65
2018-03-22T00:59:36.336Z,70.21
2018-03-22T01:02:02.330Z,70.12
2018-03-22T01:04:28.350Z,70.24
2018-03-22T01:06:54.300Z,69.96
2018-03-22T01:09:20.351Z,70.16
2018-03-22T01:11:46.308Z,70.78
2018-03-22T01:14:12.311Z,70.69
2018-03-22T01:16:38.331Z,70.50
2018-03-22T01:19:04.309Z,71.96
2018-03-22T01:21:30.321Z,72.59
2018-03-22T01:23:56.320Z,72.89
2018-03-22T01:26:22.433Z,72.93
2018-03-22T01:28:48.448Z,73.30
2018-03-22T01:31:14.471Z,72.75
2018-03-22T01:33:40.479Z,72.67
2018-03-22T01:36:06.526Z,72.90
2018-03-22T01:38:32.562Z,73.33
2018-03-22T01:40:58.526Z,73.05
2018-03-22T01:43:24.590Z,74.02
2018-03-22T01:45:50.587Z,73.96
2018-03-22T01:48:16.677Z,74.01
2018-03-22T01:50:42.685Z,74.27
2018-03-22T01:53:12.741Z,74.09
2018-03-22T01:55:38.735Z,74.06
2018-03-22T01:58:04.794Z,73.84
2018-03-22T02:00:30.797Z,74.11
2018-03-22T02:02:56.810Z,74.31
2018-03-22T02:05:22.836Z,73.88
2018-03-22T02:07:48.862Z,74.45
2018-03-22T02:10:14.870Z,74.29
2018-03-22T02:12:40.886Z,74.26
2018-03-22T02:15:06.955Z,74.40
2018-03-22T02:17:32.981Z,74.75
2018-03-22T02:19:59.034Z,75.78
2018-03-22T02:22:25.082Z,75.49
2018-03-22T02:24:51.094Z,75.99
2018-03-22T02:27:17.149Z,76.72
2018-03-22T02:29:43.107Z,76.54
2018-03-22T02:32:09.116Z,75.88
2018-03-22T02:34:35.118Z,75.35
2018-03-22T02:37:01.181Z,74.92
2018-03-22T02:39:27.158Z,74.92
2018-03-22T02:41:53.247Z,75.25
2018-03-22T02:44:19.314Z,75.13
2018-03-22T02:46:45.354Z,74.42
2018-03-22T02:49:11.362Z,74.99
2018-03-22T02:51:37.413Z,74.86
2018-03-22T02:54:03.378Z,74.49
2018-03-22T02:56:29.348Z,74.57
2018-03-22T02:58:55.362Z,75.41
2018-03-22T03:01:21.486Z,76.42
2018-03-22T03:03:47.713Z,76.73
2018-03-22T03:06:13.779Z,77.26
2018-03-22T03:08:39.786Z,77.18
2018-03-22T03:11:05.803Z,78.40
2018-03-22T03:13:31.790Z,78.17
2018-03-22T03:15:57.808Z,78.59
2018-03-22T03:18:23.802Z,77.62
2018-03-22T03:20:49.839Z,77.33
2018-03-22T03:23:15.844Z,76.90
2018-03-22T03:25:42.226Z,76.23
2018-03-22T03:28:08.242Z,76.52
2018-03-22T03:30:34.272Z,76.03
2018-03-22T03:33:00.298Z,76.70
2018-03-22T03:35:26.261Z,77.87
2018-03-22T03:37:52.315Z,78.94
2018-03-22T03:40:18.279Z,78.79
2018-03-22T03:42:44.336Z,77.93
2018-03-22T03:45:10.349Z,77.18
2018-03-22T03:47:36.353Z,76.64
2018-03-22T03:50:02.672Z,76.76
2018-03-22T03:52:28.677Z,76.16
2018-03-22T03:54:54.816Z,75.97
2018-03-22T03:57:20.834Z,76.78
2018-03-22T03:59:47.408Z,78.41
2018-03-22T04:02:13.502Z,79.29
2018-03-22T04:04:39.910Z,79.34
2018-03-22T04:07:05.977Z,78.73
2018-03-22T04:09:32.026Z,78.02
2018-03-22T04:11:58.093Z,77.78
2018-03-22T04:14:24.141Z,77.02
2018-03-22T04:16:50.149Z,76.64
2018-03-22T04:19:16.153Z,76.86
2018-03-22T04:21:42.169Z,76.21
2018-03-22T04:24:08.147Z,76.54
2018-03-22T04:26:34.189Z,76.17
2018-03-22T04:29:00.195Z,76.50
2018-03-22T04:31:26.204Z,76.76
2018-03-22T04:33:52.208Z,76.93
2018-03-22T04:36:18.210Z,76.69
2018-03-22T04:38:44.244Z,78.11
2018-03-22T04:41:10.333Z,78.56
2018-03-22T04:43:36.352Z,79.00
2018-03-22T04:46:02.454Z,78.64
2018-03-22T04:48:28.507Z,78.18
2018-03-22T04:50:54.530Z,77.97
2018-03-22T04:53:20.544Z,77.87
2018-03-22T04:55:46.617Z,77.78
2018-03-22T04:58:12.677Z,77.72
2018-03-22T05:00:38.855Z,77.88
2018-03-22T05:03:04.873Z,77.83
2018-03-22T05:05:30.928Z,77.60
2018-03-22T05:07:56.929Z,77.67
2018-03-22T05:10:22.937Z,77.16
2018-03-22T05:12:48.941Z,77.60
2018-03-22T05:15:15.065Z,77.46
2018-03-22T05:17:41.085Z,77.25
2018-03-22T05:20:07.077Z,77.34
2018-03-22T05:22:33.090Z,77.67
2018-03-22T05:24:59.118Z,76.74
2018-03-22T05:27:25.157Z,76.45
2018-03-22T05:29:51.226Z,76.03
2018-03-22T05:32:17.334Z,76.10
2018-03-22T05:34:43.364Z,76.26
2018-03-22T05:37:09.485Z,75.87
2018-03-22T05:39:35.519Z,75.97
2018-03-22T05:42:01.522Z,75.96
2018-03-22T05:44:27.597Z,75.40
2018-03-22T05:46:53.595Z,75.88
2018-03-22T05:49:19.616Z,75.45
2018-03-22T05:51:45.658Z,75.64
2018-03-22T05:54:12.559Z,75.49
2018-03-22T05:56:38.566Z,75.32
2018-03-22T05:59:04.590Z,75.49
2018-03-22T06:01:30.682Z,75.05
2018-03-22T06:03:56.836Z,75.80
2018-03-22T06:06:22.790Z,75.66
2018-03-22T06:08:48.867Z,75.72
2018-03-22T06:11:14.929Z,75.42
2018-03-22T06:13:40.889Z,76.06
2018-03-22T06:16:07.084Z,76.00
2018-03-22T06:18:33.074Z,75.95
2018-03-22T06:20:59.107Z,75.68
2018-03-22T06:23:25.185Z,74.81
2018-03-22T06:25:51.191Z,73.86
2018-03-22T06:28:17.200Z,73.25
2018-03-22T06:30:43.325Z,73.38
2018-03-22T06:33:09.354Z,73.28
2018-03-22T06:35:35.397Z,73.06
2018-03-22T06:38:01.449Z,72.38
2018-03-22T06:40:27.469Z,72.81
2018-03-22T06:42:53.552Z,72.37
2018-03-22T06:45:19.560Z,72.60
2018-03-22T06:47:45.607Z,72.95
2018-03-22T06:50:11.651Z,71.99
2018-03-22T06:52:37.670Z,70.60
2018-03-22T06:55:04.030Z,70.58
2018-03-22T06:57:30.025Z,71.30
2018-03-22T06:59:56.034Z,72.48
2018-03-22T07:02:22.039Z,72.20
2018-03-22T07:04:48.175Z,72.58
2018-03-22T07:07:14.143Z,71.15
2018-03-22T07:09:40.142Z,71.20
2018-03-22T07:12:06.193Z,71.33
2018-03-22T07:14:32.205Z,71.84
2018-03-22T07:16:58.234Z,71.00
2018-03-22T07:19:24.332Z,69.78
2018-03-22T07:21:50.366Z,68.93
2018-03-22T07:24:16.394Z,68.33
2018-03-22T07:26:42.392Z,68.58
2018-03-22T07:29:08.479Z,68.95
2018-03-22T07:31:34.543Z,69.42
2018-03-22T07:34:00.690Z,69.09
2018-03-22T07:36:26.697Z,69.10
2018-03-22T07:38:52.659Z,69.53
2018-03-22T07:41:18.729Z,69.07
2018-03-22T07:43:44.773Z,67.27
2018-03-22T07:46:10.797Z,65.46
2018-03-22T07:48:36.773Z,63.52
2018-03-22T07:51:02.842Z,63.41
2018-03-22T07:53:28.902Z,62.84
2018-03-22T07:55:55.050Z,63.48
2018-03-22T07:58:21.249Z,61.58
2018-03-22T08:00:47.253Z,59.02
2018-03-22T08:03:15.129Z,57.52
2018-03-22T08:05:41.137Z,57.45
2018-03-22T08:08:07.192Z,56.42
2018-03-22T08:10:33.225Z,55.81
2018-03-22T08:12:59.289Z,55.24
2018-03-22T08:15:25.601Z,54.13
2018-03-22T08:17:51.633Z,53.90
2018-03-22T08:20:17.649Z,53.48
2018-03-22T08:22:43.642Z,53.93
2018-03-22T08:25:09.692Z,51.64
2018-03-22T08:27:35.699Z,52.40
2018-03-22T08:30:01.772Z,53.53
2018-03-22T08:32:27.817Z,52.00
2018-03-22T08:34:53.853Z,51.96
2018-03-22T08:37:19.826Z,52.00
2018-03-22T08:39:45.841Z,52.65
2018-03-22T08:42:11.886Z,52.24
2018-03-22T08:44:37.894Z,52.40
2018-03-22T08:47:03.958Z,51.46
2018-03-22T08:49:29.965Z,51.11
2018-03-22T08:51:56.024Z,51.37
2018-03-22T08:54:22.025Z,51.44
2018-03-22T08:56:48.073Z,50.54
2018-03-22T08:59:14.057Z,49.84
2018-03-22T09:01:40.074Z,50.59
2018-03-22T09:04:06.167Z,49.47
2018-03-22T09:06:32.210Z,49.63
2018-03-22T09:08:58.253Z,49.16
2018-03-22T09:11:24.326Z,49.21
2018-03-22T09:13:50.389Z,49.86
2018-03-22T09:16:16.369Z,49.13
2018-03-22T09:18:42.446Z,49.07
2018-03-22T09:21:08.476Z,49.42
2018-03-22T09:23:34.485Z,49.02
2018-03-22T09:26:00.468Z,48.03
2018-03-22T09:28:26.497Z,47.50
2018-03-22T09:30:52.525Z,46.77
2018-03-22T09:33:18.533Z,46.66
2018-03-22T09:35:44.541Z,46.73
2018-03-22T09:38:10.567Z,46.76
2018-03-22T09:40:36.553Z,46.55
2018-03-22T09:43:02.595Z,46.74
2018-03-22T09:45:28.633Z,46.66
2018-03-22T09:47:54.697Z,46.67
2018-03-22T09:50:20.710Z,46.41
2018-03-22T09:52:46.713Z,46.42
2018-03-22T09:55:12.766Z,45.79
2018-03-22T09:57:38.814Z,45.40
2018-03-22T10:00:04.869Z,45.27
2018-03-22T10:02:30.914Z,45.12
2018-03-22T10:04:56.938Z,44.94
2018-03-22T10:07:22.934Z,44.50
2018-03-22T10:09:48.948Z,44.58
2018-03-22T10:12:14.968Z,44.43
2018-03-22T10:14:40.981Z,44.54
2018-03-22T10:17:06.952Z,45.12
2018-03-22T10:19:32.953Z,44.47
2018-03-22T10:21:59.075Z,44.17
2018-03-22T10:24:25.108Z,43.83
2018-03-22T10:26:51.091Z,44.05
2018-03-22T10:29:17.443Z,43.54
2018-03-22T10:31:43.451Z,43.71
2018-03-22T10:34:09.530Z,43.74
2018-03-22T10:36:35.561Z,43.47
2018-03-22T10:39:01.615Z,43.58
2018-03-22T10:41:27.617Z,44.29
2018-03-22T10:43:53.705Z,44.53
2018-03-22T10:46:19.709Z,45.43
2018-03-22T10:48:45.690Z,45.69
2018-03-22T10:51:11.709Z,46.09
2018-03-22T10:53:37.749Z,46.01
2018-03-22T10:56:03.784Z,45.31
2018-03-22T10:58:30.180Z,45.35
2018-03-22T11:01:02.282Z,45.19
2018-03-22T11:03:28.482Z,45.11
2018-03-22T11:05:54.505Z,44.70
2018-03-22T11:08:20.545Z,44.46
2018-03-22T11:10:46.630Z,44.23
2018-03-22T11:13:12.674Z,43.80
2018-03-22T11:15:38.618Z,44.21
2018-03-22T11:18:04.642Z,44.27
2018-03-22T11:20:30.640Z,44.31
2018-03-22T11:22:56.651Z,44.06
2018-03-22T11:25:22.652Z,44.08
2018-03-22T11:27:48.691Z,44.17
2018-03-22T11:30:14.736Z,44.00
2018-03-22T11:32:40.702Z,44.21
2018-03-22T11:35:06.722Z,44.54
2018-03-22T11:37:32.817Z,44.31
2018-03-22T11:39:58.853Z,44.25
2018-03-22T11:42:24.833Z,44.59
2018-03-22T11:44:50.916Z,44.43
2018-03-22T11:47:16.970Z,44.40
2018-03-22T11:49:42.997Z,44.85
2018-03-22T11:52:09.020Z,44.77
2018-03-22T11:54:35.028Z,44.46
2018-03-22T11:57:01.060Z,44.38
2018-03-22T11:59:27.086Z,44.36
2018-03-22T12:01:53.203Z,44.17
2018-03-22T12:04:19.218Z,44.16
2018-03-22T12:06:45.208Z,44.30
2018-03-22T12:09:11.330Z,44.19
2018-03-22T12:11:37.334Z,44.15
2018-03-22T12:14:03.340Z,44.14
2018-03-22T12:16:29.362Z,44.40
2018-03-22T12:18:55.365Z,44.21
2018-03-22T12:21:21.413Z,43.94
2018-03-22T12:23:47.417Z,44.71
2018-03-22T12:26:13.441Z,43.99
2018-03-22T12:28:39.464Z,44.24
2018-03-22T12:31:05.530Z,44.53
2018-03-22T12:33:31.509Z,44.25
2018-03-22T12:35:57.539Z,45.18
2018-03-22T12:38:23.603Z,44.95
2018-03-22T12:40:49.614Z,45.73
2018-03-22T12:43:15.642Z,46.11
2018-03-22T12:45:41.676Z,46.22
2018-03-22T12:48:07.699Z,46.28
2018-03-22T12:50:33.725Z,46.67
2018-03-22T12:52:59.827Z,47.10
2018-03-22T12:55:26.279Z,48.19
2018-03-22T12:57:52.285Z,49.38
2018-03-22T13:00:18.314Z,50.41
2018-03-22T13:02:44.387Z,51.17
2018-03-22T13:05:10.401Z,51.45
2018-03-22T13:07:36.406Z,53.58
2018-03-22T13:10:02.414Z,54.36
2018-03-22T13:12:28.470Z,54.15
2018-03-22T13:14:54.499Z,54.60
2018-03-22T13:17:20.536Z,56.04
2018-03-22T13:19:46.553Z,56.60
2018-03-22T13:22:12.572Z,57.11
2018-03-22T13:24:38.578Z,58.76
2018-03-22T13:27:04.572Z,59.90
2018-03-22T13:29:30.598Z,63.35
2018-03-22T13:31:56.619Z,68.85
2018-03-22T13:34:22.690Z,72.41
2018-03-22T13:36:48.746Z,71.02
2018-03-22T13:39:14.785Z,71.59
2018-03-22T13:41:40.770Z,71.24
2018-03-22T13:44:06.804Z,70.62
2018-03-22T13:46:32.841Z,71.25
2018-03-22T13:48:58.853Z,69.73
2018-03-22T13:51:24.862Z,69.63
2018-03-22T13:53:50.945Z,69.18
2018-03-22T13:56:17.011Z,69.64
2018-03-22T13:58:43.026Z,68.84
2018-03-22T14:01:09.055Z,68.12
2018-03-22T14:03:35.061Z,67.63
2018-03-22T14:06:01.106Z,69.01
2018-03-22T14:08:27.590Z,69.80
2018-03-22T14:10:53.661Z,70.12
2018-03-22T14:13:19.681Z,70.27
2018-03-22T14:15:45.655Z,69.76
2018-03-22T14:18:11.662Z,69.26
2018-03-22T14:20:37.737Z,68.73
2018-03-22T14:23:03.783Z,68.11
2018-03-22T14:25:30.422Z,66.85
2018-03-22T14:27:56.450Z,66.59
2018-03-22T14:30:22.510Z,65.86
2018-03-22T14:32:48.516Z,65.03
2018-03-22T14:35:14.459Z,64.92
2018-03-22T14:37:40.514Z,64.03
2018-03-22T14:40:06.548Z,64.08
2018-03-22T14:42:32.553Z,63.64
2018-03-22T14:44:58.652Z,63.52
2018-03-22T14:47:24.634Z,63.32
2018-03-22T14:49:50.670Z,63.33
2018-03-22T14:52:16.760Z,63.10
2018-03-22T14:54:42.794Z,62.62
2018-03-22T14:57:08.822Z,62.80
2018-03-22T14:59:34.877Z,62.89
2018-03-22T15:02:00.896Z,62.49
2018-03-22T15:04:26.918Z,62.46
2018-03-22T15:06:52.990Z,62.33
2018-03-22T15:09:19.017Z,62.25
2018-03-22T15:11:45.048Z,61.74
2018-03-22T15:14:11.095Z,61.99
2018-03-22T15:16:37.133Z,62.27
2018-03-22T15:19:03.183Z,62.36
2018-03-22T15:21:29.184Z,62.80
2018-03-22T15:23:55.290Z,63.20
2018-03-22T15:26:21.319Z,63.62
2018-03-22T15:28:47.373Z,64.19
2018-03-22T15:31:13.459Z,65.54
2018-03-22T15:33:39.518Z,67.63
2018-03-22T15:36:05.538Z,72.64
2018-03-22T15:38:31.628Z,74.71
2018-03-22T15:40:57.707Z,76.43
2018-03-22T15:43:23.806Z,77.29
2018-03-22T15:45:49.911Z,78.85
2018-03-22T15:48:15.925Z,80.13
2018-03-22T15:50:42.048Z,81.95
2018-03-22T15:53:08.124Z,83.38
2018-03-22T15:55:34.218Z,83.47
2018-03-22T15:58:00.247Z,83.99
2018-03-22T16:00:26.717Z,84.53
2018-03-22T16:02:52.771Z,84.84
2018-03-22T16:05:18.814Z,85.26
2018-03-22T16:07:44.825Z,85.59
2018-03-22T16:10:10.929Z,85.79
2018-03-22T16:12:37.039Z,86.07
2018-03-22T16:15:03.349Z,86.48
2018-03-22T16:17:29.462Z,86.64
2018-03-22T16:19:55.561Z,87.10
2018-03-22T16:22:21.634Z,86.87
2018-03-22T16:24:47.670Z,86.63
2018-03-22T16:27:13.697Z,86.18
2018-03-22T16:29:39.801Z,86.36
2018-03-22T16:32:05.867Z,86.61
2018-03-22T16:34:31.906Z,87.07
2018-03-22T16:36:57.905Z,87.33
2018-03-22T16:39:23.961Z,87.39
2018-03-22T16:41:49.969Z,87.55
2018-03-22T16:44:15.993Z,87.63
2018-03-22T16:46:41.975Z,87.42
2018-03-22T16:49:08.103Z,87.70
2018-03-22T16:51:34.136Z,87.67
2018-03-22T16:54:00.151Z,87.87
2018-03-22T16:56:26.154Z,87.87
2018-03-22T16:58:52.112Z,88.19
2018-03-22T17:01:18.127Z,88.53
2018-03-22T17:03:44.187Z,88.89
2018-03-22T17:06:10.254Z,89.07
2018-03-22T17:08:36.292Z,89.32
2018-03-22T17:11:02.329Z,89.20
2018-03-22T17:13:28.310Z,89.41
2018-03-22T17:15:54.364Z,89.53
2018-03-22T17:18:20.453Z,89.66
2018-03-22T17:20:46.529Z,89.87
2018-03-22T17:23:12.549Z,89.89
2018-03-22T17:25:38.622Z,89.98
2018-03-22T17:28:04.726Z,89.83
2018-03-22T17:30:30.806Z,89.74
2018-03-22T17:32:56.758Z,89.64
2018-03-22T17:35:22.873Z,89.46
2018-03-22T17:37:48.890Z,89.39
2018-03-22T17:40:14.912Z,89.35
2018-03-22T17:42:40.982Z,89.21
2018-03-22T17:45:07.037Z,89.06
2018-03-22T17:47:33.042Z,88.79
2018-03-22T17:49:59.131Z,88.73
2018-03-22T17:52:25.201Z,88.61
2018-03-22T17:54:51.244Z,88.32
2018-03-22T17:57:17.294Z,88.40
2018-03-22T17:59:43.344Z,88.36
2018-03-22T18:02:09.405Z,88.28
2018-03-22T18:04:35.386Z,87.58
2018-03-22T18:07:01.422Z,87.80
2018-03-22T18:09:27.849Z,87.92
2018-03-22T18:11:53.910Z,88.22
2018-03-22T18:14:19.934Z,87.99
2018-03-22T18:16:45.934Z,87.95
2018-03-22T18:19:12.004Z,87.90
2018-03-22T18:21:38.075Z,87.83
2018-03-22T18:24:04.092Z,87.85
2018-03-22T18:26:30.101Z,87.59
2018-03-22T18:28:56.101Z,87.69
2018-03-22T18:31:22.073Z,87.78
2018-03-22T18:33:48.070Z,87.59
2018-03-22T18:36:14.152Z,87.68
2018-03-22T18:38:40.141Z,87.87
2018-03-22T18:41:06.181Z,87.78
2018-03-22T18:43:32.208Z,87.95
2018-03-22T18:45:58.290Z,88.19
2018-03-22T18:48:24.358Z,88.21
2018-03-22T18:50:50.338Z,88.03
2018-03-22T18:53:16.419Z,87.85
2018-03-22T18:55:42.466Z,88.00
2018-03-22T18:58:08.489Z,87.72
2018-03-22T19:00:34.541Z,87.90
2018-03-22T19:03:00.566Z,88.11
2018-03-22T19:05:26.666Z,88.38
2018-03-22T19:07:52.694Z,88.37
2018-03-22T19:10:18.766Z,88.59
2018-03-22T19:12:45.206Z,88.89
2018-03-22T19:15:11.167Z,89.06
2018-03-22T19:17:37.188Z,88.65
2018-03-22T19:20:03.326Z,88.64
2018-03-22T19:22:29.374Z,88.72
2018-03-22T19:24:55.425Z,88.91
2018-03-22T19:27:21.477Z,88.88
2018-03-22T19:29:47.485Z,88.93
2018-03-22T19:32:13.497Z,88.90
2018-03-22T19:34:39.677Z,88.63
2018-03-22T19:37:05.721Z,88.67
2018-03-22T19:39:31.898Z,88.56
2018-03-22T19:41:57.995Z,88.93
2018-03-22T19:44:24.125Z,88.98
2018-03-22T19:46:50.124Z,89.14
2018-03-22T19:49:16.094Z,89.36
2018-03-22T19:51:42.106Z,89.59
2018-03-22T19:54:08.191Z,89.70
2018-03-22T19:56:34.193Z,89.78
2018-03-22T19:59:00.356Z,89.80
2018-03-22T20:01:26.446Z,89.77
2018-03-22T20:03:52.474Z,89.72
2018-03-22T20:06:18.500Z,89.78
2018-03-22T20:08:44.533Z,89.78
2018-03-22T20:11:10.635Z,90.05
2018-03-22T20:13:36.622Z,90.09
2018-03-22T20:16:02.723Z,90.37
2018-03-22T20:18:28.745Z,90.43
2018-03-22T20:20:54.813Z,90.62
2018-03-22T20:23:20.921Z,90.74
2018-03-22T20:25:47.030Z,90.75
2018-03-22T20:28:13.044Z,90.94
2018-03-22T20:30:39.079Z,90.82
2018-03-22T20:33:05.158Z,90.91
2018-03-22T20:35:31.255Z,90.98
2018-03-22T20:37:57.432Z,91.09
2018-03-22T20:40:23.441Z,91.14
2018-03-22T20:42:49.443Z,91.11
2018-03-22T20:45:15.459Z,91.14
2018-03-22T20:47:41.513Z,91.14
2018-03-22T20:50:07.559Z,91.00
2018-03-22T20:52:33.601Z,90.92
2018-03-22T20:54:59.647Z,91.10
2018-03-22T20:57:25.685Z,90.85
2018-03-22T20:59:51.754Z,90.92
2018-03-22T21:02:17.810Z,91.01
2018-03-22T21:04:43.778Z,91.33
2018-03-22T21:07:09.846Z,91.45
2018-03-22T21:09:35.842Z,91.52
2018-03-22T21:12:01.895Z,91.84
2018-03-22T21:14:27.931Z,92.14
2018-03-22T21:16:54.014Z,92.26
2018-03-22T21:19:20.127Z,92.25
2018-03-22T21:21:46.302Z,92.36
2018-03-22T21:24:12.405Z,92.57
2018-03-22T21:26:38.477Z,92.48
2018-03-22T21:29:04.528Z,92.37
2018-03-22T21:31:30.863Z,92.17
2018-03-22T21:33:57.117Z,92.09
2018-03-22T21:36:23.190Z,91.95
2018-03-22T21:38:49.269Z,91.84
2018-03-22T21:41:37.523Z,91.70
2018-03-22T21:44:14.763Z,91.88
2018-03-22T21:46:40.784Z,91.96
2018-03-22T21:49:06.879Z,91.90
2018-03-22T21:51:32.958Z,92.15
2018-03-22T21:53:59.038Z,92.26
2018-03-22T21:56:25.094Z,92.39
2018-03-22T21:58:51.151Z,92.43
2018-03-22T22:01:17.154Z,92.55
2018-03-22T22:03:43.195Z,92.63
2018-03-22T22:06:09.195Z,92.58
2018-03-22T22:08:35.162Z,92.59
2018-03-22T22:11:01.162Z,92.62
2018-03-22T22:13:27.149Z,92.83
2018-03-22T22:15:53.206Z,93.06
2018-03-22T22:18:19.222Z,92.90
2018-03-22T22:20:45.223Z,92.98
2018-03-22T22:23:11.301Z,93.16
2018-03-22T22:25:37.339Z,93.09
2018-03-22T22:28:03.390Z,93.02
2018-03-22T22:30:29.388Z,93.04
2018-03-22T22:32:55.488Z,92.97
2018-03-22T22:35:21.545Z,93.01
2018-03-22T22:37:47.511Z,93.19
2018-03-22T22:40:13.572Z,93.24
2018-03-22T22:42:39.655Z,93.31
2018-03-22T22:45:05.659Z,93.58
2018-03-22T22:47:31.634Z,93.62
2018-03-22T22:49:57.716Z,93.66
2018-03-22T22:52:23.735Z,94.31
2018-03-22T22:54:49.761Z,94.71
2018-03-22T22:57:15.826Z,94.83
2018-03-22T22:59:41.869Z,94.40
2018-03-22T23:02:07.906Z,93.92
2018-03-22T23:04:34.018Z,93.69
2018-03-22T23:07:00.079Z,93.55
2018-03-22T23:09:26.080Z,93.25
2018-03-22T23:11:52.190Z,93.42
2018-03-22T23:14:18.242Z,93.66
2018-03-22T23:16:44.317Z,94.14
2018-03-22T23:19:10.345Z,93.80
2018-03-22T23:21:36.384Z,93.59
2018-03-22T23:24:02.390Z,93.75
2018-03-22T23:26:28.462Z,94.07
2018-03-22T23:28:54.477Z,93.91
2018-03-22T23:31:20.521Z,93.83
2018-03-22T23:33:46.593Z,93.63
2018-03-22T23:36:12.647Z,93.41
2018-03-22T23:38:38.657Z,93.85
2018-03-22T23:41:04.638Z,93.65
2018-03-22T23:43:30.694Z,93.82
2018-03-22T23:45:56.699Z,94.31
2018-03-22T23:48:22.739Z,94.84
2018-03-22T23:50:48.832Z,95.49
2018-03-22T23:53:14.862Z,96.16
2018-03-22T23:55:40.948Z,96.56
2018-03-22T23:58:07.075Z,96.48
